Disclaimer

Please do not use the information listed here in-flight or in-navigation, as they are not provided to us by the airports but are provided by volunteers, so they might be outdated.

Search


Regions


Airport information page

Radio informations:
Tower (TWR) - 118.425 MHz
RADAR - 123.3 MHz
BERLIN INFO - 132.65 MHz
BERLIN RADAR - 126.175 MHz

Airport informations:
Latitude: 53° 55' 05.40" N
Longitude: 012° 16' 42.00" E
Elevation: 138 feet - 42 meters
Operating hours: Remarks
Operating agency: Military-civil joint use airport
Timezone: UTC+1(+2DT) - Last Sunday in March to last Sunday in October
Fuel: JP-8, SemiKeroscene MIL Spec T-83133, without icing inhibitor

Runway information:
10/28 - 8202 x 148 feet< - >2500 x 45 meters

Recent METARs:
ETNL 151620Z 09004KT 9999 BKN028 M00/M03 Q1027 BLU
ETNL 151620Z 09004KT 9999 BKN028 M00/M03 Q1027 BLU
ETNL 151720Z 09005KT 9999 BKN025 M00/M03 Q1027 BLU

Airport on the map: